Seeley, CA

11:22 AM PDT on September 21, 2014 (GMT -0700)
El Centro Naval Air Facility | Change Station
CLOSE
Current Station
Airport
Location: El Centro,
Elevation: -43 ft
Nearby Weather Stations

Elev -43 ft 32.83 °N, 115.66 °W | Updated 26 minutes ago

Clear
Clear
91 °F
Feels Like 91 °F
N
5
Wind Variable Wind from South

Today
High -- | Low -- °F
--% Chance of Precip.
Yesterday
High -- | Low -- °F
Precip. -- in
6:30 AM 6:40 PM
Waning Crescent, 6% visible
Pressure 29.91 in
Visibility 10.0 miles
Clouds Clear
Dew Point 45 °F
Humidity 20%
Rainfall 0.00 in
Snow Depth 0 in , 0 in , 0 in
UV 8 out of 12
Pollen 8.80 out of 12
Ozone Good
PM2.5 Good
Flu Activity Not available.
METAR KNJK 211756Z AUTO 19004KT 10SM CLR 33/07 A2987 RMK AO2 SLP129 T03280072 10328 20239 50007

More Conditions Fewer Conditions

Pressure 29.91 in
Visibility 10.0 miles
Clouds Clear
Dew Point 45 °F
Humidity 20%
Rainfall 0.00 in
Snow Depth 0 in , 0 in , 0 in
UV 8 out of 12
Pollen 8.80 out of 12
Ozone Good
PM2.5 Good
Flu Activity Not available.
METAR KNJK 211756Z AUTO 19004KT 10SM CLR 33/07 A2987 RMK AO2 SLP129 T03280072 10328 20239 50007

More Conditions Fewer Conditions

10-Day Weather Forecast

Almanac

Astronomy

Sep. 21, 2014 Rise Set
Actual Time 6:30 AM PDT 6:40 PM PDT
Civil Twilight 6:05 AM PDT 7:05 PM PDT
Nautical Twilight 5:36 AM PDT 7:33 PM PDT
Astronomical Twilight 5:07 AM PDT 8:02 PM PDT
Moon 4:13 AM PDT 5:14 PM PDT
Length of Visible Light 12h 59m
Length of Day
12h 10m
Tomorrow will be 2m 1s shorter.
Waning Crescent, 6% of the Moon is Illuminated
Today
Waning Crescent
Sep 24
New
Oct 1
First Quarter
Oct 8
Full
Oct 15
Last Quarter

Today's Extremes

State Highs State Lows

Community

WunderPhotos

Upload Photos

1,755,212 photos uploaded!

WunderBlogs® & News

Nearby

Air Quality

  Air Quality AQ Index Pollutant
Yesterday Moderate
PM2.5
Yesterday Good
OZONE
Current Good
PM2.5
Current Good
OZONE
Sunday Moderate
OZONE
Monday Moderate
OZONE
Tuesday Moderate
OZONE
Wednesday Moderate
OZONE
Thursday Moderate
OZONE
Friday Good
OZONE

Snow Depth

Station Depth Elevation
CSS Lab 2 in 6900 ft
Summit Meadow 0 in 9122 ft
Spratt Creek 0 in 6200 ft
Rubicon #2 0 in 7500 ft
Hagan's Meadow 0 in 8000 ft

Earthquake Activity

City Distance Mag. Time & Date
Borrego Springs, California 49 miles 2.6 7:34 AM PDT
2014-09-21
Aguanga, California 78 miles 2.5 1:38 AM PDT
2014-09-19
Minimum magnitude displayed is 2.5.

Coastal Water Temperatures

Place Temperature
No Stations Reporting

Nearby Weather Stations